sensor_id;sensor_type;location;lat;lon;timestamp;pressure;altitude;pressure_sealevel;temperature;humidity
37710;BME280;60223;34.854;-92.408;2023-02-19T00:00:19;101377.82;;;21.54;28.61
37710;BME280;60223;34.854;-92.408;2023-02-19T00:02:43;101347.62;;;21.61;28.46
37710;BME280;60223;34.854;-92.408;2023-02-19T00:05:11;101318.60;;;21.48;28.58
37710;BME280;60223;34.854;-92.408;2023-02-19T00:07:36;101308.86;;;21.60;28.49
37710;BME280;60223;34.854;-92.408;2023-02-19T00:09:59;101304.90;;;22.01;28.42
37710;BME280;60223;34.854;-92.408;2023-02-19T00:12:27;101280.03;;;21.77;28.52
37710;BME280;60223;34.854;-92.408;2023-02-19T00:14:53;101277.60;;;21.88;28.43
37710;BME280;60223;34.854;-92.408;2023-02-19T00:17:19;101261.69;;;22.15;28.42
37710;BME280;60223;34.854;-92.408;2023-02-19T00:19:44;101256.09;;;22.02;28.50
37710;BME280;60223;34.854;-92.408;2023-02-19T00:22:10;101270.39;;;21.93;28.40
37710;BME280;60223;34.854;-92.408;2023-02-19T00:24:36;101278.85;;;21.90;28.57
37710;BME280;60223;34.854;-92.408;2023-02-19T00:27:02;101289.39;;;21.71;28.51
37710;BME280;60223;34.854;-92.408;2023-02-19T00:29:24;101298.98;;;22.09;28.80
37710;BME280;60223;34.854;-92.408;2023-02-19T00:31:53;101325.27;;;22.19;28.50
37710;BME280;60223;34.854;-92.408;2023-02-19T00:34:19;101336.63;;;21.82;28.37
37710;BME280;60223;34.854;-92.408;2023-02-19T00:36:44;101321.30;;;22.35;28.34
37710;BME280;60223;34.854;-92.408;2023-02-19T00:39:11;101330.63;;;21.94;28.42
37710;BME280;60223;34.854;-92.408;2023-02-19T00:41:36;101320.54;;;21.91;28.32
37710;BME280;60223;34.854;-92.408;2023-02-19T00:44:04;101312.75;;;21.71;28.53
37710;BME280;60223;34.854;-92.408;2023-02-19T00:46:29;101341.66;;;21.73;28.59
37710;BME280;60223;34.854;-92.408;2023-02-19T00:49:02;101344.77;;;21.74;28.51
37710;BME280;60223;34.854;-92.408;2023-02-19T00:51:18;101331.39;;;21.67;28.69
37710;BME280;60223;34.854;-92.408;2023-02-19T00:53:45;101347.04;;;22.13;28.64
37710;BME280;60223;34.854;-92.408;2023-02-19T00:56:11;101364.68;;;22.89;28.10
37710;BME280;60223;34.854;-92.408;2023-02-19T00:58:35;101349.85;;;23.35;27.47
37710;BME280;60223;34.854;-92.408;2023-02-19T01:01:02;101306.34;;;23.41;27.65
37710;BME280;60223;34.854;-92.408;2023-02-19T01:03:27;101311.93;;;24.15;27.07
37710;BME280;60223;34.854;-92.408;2023-02-19T01:05:53;101327.21;;;23.32;27.41
37710;BME280;60223;34.854;-92.408;2023-02-19T01:08:16;101350.80;;;23.59;27.18
37710;BME280;60223;34.854;-92.408;2023-02-19T01:10:44;101372.57;;;23.99;27.04
37710;BME280;60223;34.854;-92.408;2023-02-19T01:13:11;101380.33;;;22.68;28.04
37710;BME280;60223;34.854;-92.408;2023-02-19T01:15:36;101378.09;;;23.89;27.37
37710;BME280;60223;34.854;-92.408;2023-02-19T01:18:01;101377.78;;;23.88;27.30
37710;BME280;60223;34.854;-92.408;2023-02-19T01:20:26;101365.77;;;23.71;27.04
37710;BME280;60223;34.854;-92.408;2023-02-19T01:22:53;101360.97;;;23.81;26.95
37710;BME280;60223;34.854;-92.408;2023-02-19T01:25:19;101365.62;;;24.41;26.41
37710;BME280;60223;34.854;-92.408;2023-02-19T01:27:44;101373.87;;;23.99;26.85
37710;BME280;60223;34.854;-92.408;2023-02-19T01:30:11;101358.09;;;23.69;27.07
37710;BME280;60223;34.854;-92.408;2023-02-19T01:32:32;101339.01;;;23.52;27.20
37710;BME280;60223;34.854;-92.408;2023-02-19T01:35:02;101323.63;;;23.48;27.22
37710;BME280;60223;34.854;-92.408;2023-02-19T01:37:27;101320.60;;;23.30;27.46
37710;BME280;60223;34.854;-92.408;2023-02-19T01:39:53;101301.16;;;23.37;27.29
37710;BME280;60223;34.854;-92.408;2023-02-19T01:42:19;101291.10;;;23.56;27.13
37710;BME280;60223;34.854;-92.408;2023-02-19T01:47:10;101291.93;;;23.31;27.42
37710;BME280;60223;34.854;-92.408;2023-02-19T01:49:40;101342.74;;;23.18;27.58
37710;BME280;60223;34.854;-92.408;2023-02-19T01:52:05;101331.69;;;23.16;27.60
37710;BME280;60223;34.854;-92.408;2023-02-19T01:54:29;101312.46;;;22.71;28.15
37710;BME280;60223;34.854;-92.408;2023-02-19T01:56:54;101300.95;;;23.56;27.26
37710;BME280;60223;34.854;-92.408;2023-02-19T01:59:19;101313.46;;;23.05;27.64
37710;BME280;60223;34.854;-92.408;2023-02-19T02:01:44;101318.14;;;23.06;27.37
37710;BME280;60223;34.854;-92.408;2023-02-19T02:04:10;101302.97;;;23.56;27.04
37710;BME280;60223;34.854;-92.408;2023-02-19T02:06:40;101295.81;;;24.04;26.61
37710;BME280;60223;34.854;-92.408;2023-02-19T02:09:01;101289.92;;;24.34;26.29
37710;BME280;60223;34.854;-92.408;2023-02-19T02:11:28;101282.22;;;23.96;26.68
37710;BME280;60223;34.854;-92.408;2023-02-19T02:13:53;101281.94;;;24.51;26.32
37710;BME280;60223;34.854;-92.408;2023-02-19T02:16:23;101267.24;;;23.60;27.18
37710;BME280;60223;34.854;-92.408;2023-02-19T02:18:53;101291.18;;;22.84;28.85
37710;BME280;60223;34.854;-92.408;2023-02-19T02:21:23;101309.79;;;23.51;28.63
37710;BME280;60223;34.854;-92.408;2023-02-19T02:23:47;101300.53;;;23.87;28.56
37710;BME280;60223;34.854;-92.408;2023-02-19T02:26:10;101285.10;;;24.12;28.45
37710;BME280;60223;34.854;-92.408;2023-02-19T02:30:56;101307.58;;;24.61;28.34
37710;BME280;60223;34.854;-92.408;2023-02-19T02:33:25;101300.13;;;24.20;28.48
37710;BME280;60223;34.854;-92.408;2023-02-19T02:35:48;101304.44;;;24.70;28.28
37710;BME280;60223;34.854;-92.408;2023-02-19T02:38:12;101301.50;;;24.03;28.74
37710;BME280;60223;34.854;-92.408;2023-02-19T02:43:02;101274.51;;;24.10;28.66
37710;BME280;60223;34.854;-92.408;2023-02-19T02:45:31;101283.60;;;24.19;28.63
37710;BME280;60223;34.854;-92.408;2023-02-19T02:47:54;101268.27;;;23.70;28.79
37710;BME280;60223;34.854;-92.408;2023-02-19T02:50:21;101265.01;;;23.96;28.18
37710;BME280;60223;34.854;-92.408;2023-02-19T02:52:45;101278.14;;;24.18;27.91
37710;BME280;60223;34.854;-92.408;2023-02-19T02:55:11;101279.26;;;24.34;27.84
37710;BME280;60223;34.854;-92.408;2023-02-19T02:57:34;101262.56;;;24.64;27.84
37710;BME280;60223;34.854;-92.408;2023-02-19T03:00:01;101258.22;;;24.35;27.91
37710;BME280;60223;34.854;-92.408;2023-02-19T03:02:28;101272.31;;;23.98;28.49
37710;BME280;60223;34.854;-92.408;2023-02-19T03:04:56;101274.71;;;23.83;28.40
37710;BME280;60223;34.854;-92.408;2023-02-19T03:07:15;101270.56;;;24.19;28.01
37710;BME280;60223;34.854;-92.408;2023-02-19T03:09:45;101282.65;;;24.14;27.92
37710;BME280;60223;34.854;-92.408;2023-02-19T03:12:12;101283.01;;;23.69;28.20
37710;BME280;60223;34.854;-92.408;2023-02-19T03:14:39;101295.99;;;24.22;27.56
37710;BME280;60223;34.854;-92.408;2023-02-19T03:17:04;101301.78;;;24.50;27.25
37710;BME280;60223;34.854;-92.408;2023-02-19T03:19:27;101318.39;;;24.69;27.27
37710;BME280;60223;34.854;-92.408;2023-02-19T03:21:55;101329.60;;;24.32;27.41
37710;BME280;60223;34.854;-92.408;2023-02-19T03:24:17;101345.21;;;23.97;27.48
37710;BME280;60223;34.854;-92.408;2023-02-19T03:26:44;101357.93;;;23.98;27.69
37710;BME280;60223;34.854;-92.408;2023-02-19T03:29:10;101357.53;;;24.04;27.88
37710;BME280;60223;34.854;-92.408;2023-02-19T03:31:36;101346.51;;;23.94;27.93
37710;BME280;60223;34.854;-92.408;2023-02-19T03:34:01;101349.25;;;23.98;27.80
37710;BME280;60223;34.854;-92.408;2023-02-19T03:36:28;101340.32;;;24.26;27.28
37710;BME280;60223;34.854;-92.408;2023-02-19T03:38:55;101324.74;;;24.49;27.23
37710;BME280;60223;34.854;-92.408;2023-02-19T03:41:21;101341.36;;;24.21;27.03
37710;BME280;60223;34.854;-92.408;2023-02-19T03:43:46;101351.80;;;24.61;26.87
37710;BME280;60223;34.854;-92.408;2023-02-19T03:46:11;101353.99;;;24.52;26.93
37710;BME280;60223;34.854;-92.408;2023-02-19T03:48:37;101360.33;;;23.91;27.51
37710;BME280;60223;34.854;-92.408;2023-02-19T03:51:10;101355.77;;;23.71;27.45
37710;BME280;60223;34.854;-92.408;2023-02-19T03:53:31;101355.43;;;23.89;27.51
37710;BME280;60223;34.854;-92.408;2023-02-19T03:55:59;101353.76;;;24.23;27.38
37710;BME280;60223;34.854;-92.408;2023-02-19T03:58:21;101343.67;;;23.86;27.26
37710;BME280;60223;34.854;-92.408;2023-02-19T04:00:47;101339.71;;;24.06;27.51
37710;BME280;60223;34.854;-92.408;2023-02-19T04:03:15;101324.83;;;23.62;27.66
37710;BME280;60223;34.854;-92.408;2023-02-19T04:05:36;101309.53;;;23.56;27.67
37710;BME280;60223;34.854;-92.408;2023-02-19T04:08:03;101318.81;;;23.53;27.65
37710;BME280;60223;34.854;-92.408;2023-02-19T04:10:23;101326.49;;;23.33;27.80
37710;BME280;60223;34.854;-92.408;2023-02-19T04:12:53;101329.04;;;23.87;27.48
37710;BME280;60223;34.854;-92.408;2023-02-19T04:15:19;101326.49;;;23.33;27.92
37710;BME280;60223;34.854;-92.408;2023-02-19T04:17:47;101323.31;;;23.43;27.52
37710;BME280;60223;34.854;-92.408;2023-02-19T04:20:10;101320.46;;;23.35;27.78
37710;BME280;60223;34.854;-92.408;2023-02-19T04:22:34;101326.36;;;22.69;28.13
37710;BME280;60223;34.854;-92.408;2023-02-19T04:24:58;101325.70;;;23.09;27.95
37710;BME280;60223;34.854;-92.408;2023-02-19T04:27:25;101319.68;;;22.94;28.23
37710;BME280;60223;34.854;-92.408;2023-02-19T04:29:51;101315.97;;;22.36;28.56
37710;BME280;60223;34.854;-92.408;2023-02-19T04:32:16;101320.06;;;22.57;28.31
37710;BME280;60223;34.854;-92.408;2023-02-19T04:34:42;101321.40;;;22.19;28.70
37710;BME280;60223;34.854;-92.408;2023-02-19T04:37:09;101314.63;;;22.21;28.60
37710;BME280;60223;34.854;-92.408;2023-02-19T04:39:34;101301.04;;;22.12;28.58
37710;BME280;60223;34.854;-92.408;2023-02-19T04:41:59;101304.92;;;22.02;28.64
37710;BME280;60223;34.854;-92.408;2023-02-19T04:44:24;101290.57;;;22.24;28.35
37710;BME280;60223;34.854;-92.408;2023-02-19T04:46:50;101285.26;;;21.97;28.57
37710;BME280;60223;34.854;-92.408;2023-02-19T04:49:16;101281.51;;;21.99;28.73
37710;BME280;60223;34.854;-92.408;2023-02-19T04:51:42;101282.73;;;21.73;28.70
37710;BME280;60223;34.854;-92.408;2023-02-19T04:54:09;101280.26;;;22.27;28.37
37710;BME280;60223;34.854;-92.408;2023-02-19T04:56:34;101280.36;;;22.60;28.21
37710;BME280;60223;34.854;-92.408;2023-02-19T04:58:57;101283.94;;;22.23;28.31
37710;BME280;60223;34.854;-92.408;2023-02-19T05:01:25;101272.26;;;21.16;29.04
37710;BME280;60223;34.854;-92.408;2023-02-19T05:03:50;101261.61;;;21.94;28.46
37710;BME280;60223;34.854;-92.408;2023-02-19T05:06:17;101256.43;;;22.37;28.27
37710;BME280;60223;34.854;-92.408;2023-02-19T05:08:41;101250.00;;;21.75;28.56
37710;BME280;60223;34.854;-92.408;2023-02-19T05:11:10;101247.34;;;21.92;28.55
37710;BME280;60223;34.854;-92.408;2023-02-19T05:13:33;101251.40;;;21.88;28.34
37710;BME280;60223;34.854;-92.408;2023-02-19T05:16:01;101259.69;;;21.92;28.48
37710;BME280;60223;34.854;-92.408;2023-02-19T05:18:25;101252.84;;;21.02;29.12
37710;BME280;60223;34.854;-92.408;2023-02-19T05:20:51;101256.58;;;21.42;28.94
37710;BME280;60223;34.854;-92.408;2023-02-19T05:23:17;101252.37;;;21.71;28.58
37710;BME280;60223;34.854;-92.408;2023-02-19T05:25:42;101240.56;;;21.55;28.69
37710;BME280;60223;34.854;-92.408;2023-02-19T05:28:08;101228.72;;;21.15;29.04
37710;BME280;60223;34.854;-92.408;2023-02-19T05:30:34;101237.00;;;21.69;28.47
37710;BME280;60223;34.854;-92.408;2023-02-19T05:33:00;101249.15;;;21.68;28.39
37710;BME280;60223;34.854;-92.408;2023-02-19T05:35:25;101243.79;;;21.49;28.36
37710;BME280;60223;34.854;-92.408;2023-02-19T05:37:51;101228.55;;;21.44;28.55
37710;BME280;60223;34.854;-92.408;2023-02-19T05:40:16;101231.22;;;21.16;28.34
37710;BME280;60223;34.854;-92.408;2023-02-19T05:42:39;101230.53;;;21.29;28.67
37710;BME280;60223;34.854;-92.408;2023-02-19T05:45:08;101221.88;;;21.64;28.53
37710;BME280;60223;34.854;-92.408;2023-02-19T05:47:34;101216.94;;;21.53;28.34
37710;BME280;60223;34.854;-92.408;2023-02-19T05:49:59;101227.06;;;21.23;28.59
37710;BME280;60223;34.854;-92.408;2023-02-19T05:52:25;101234.12;;;21.31;28.49
37710;BME280;60223;34.854;-92.408;2023-02-19T05:54:51;101238.45;;;21.05;28.75
37710;BME280;60223;34.854;-92.408;2023-02-19T05:57:16;101249.76;;;20.81;28.90
37710;BME280;60223;34.854;-92.408;2023-02-19T05:59:43;101260.48;;;21.29;28.46
37710;BME280;60223;34.854;-92.408;2023-02-19T06:02:08;101264.59;;;21.53;28.14
37710;BME280;60223;34.854;-92.408;2023-02-19T06:04:34;101267.60;;;20.96;28.70
37710;BME280;60223;34.854;-92.408;2023-02-19T06:06:59;101269.91;;;20.93;28.69
37710;BME280;60223;34.854;-92.408;2023-02-19T06:09:25;101275.60;;;20.85;28.75
37710;BME280;60223;34.854;-92.408;2023-02-19T06:11:51;101272.85;;;21.36;28.42
37710;BME280;60223;34.854;-92.408;2023-02-19T06:14:16;101273.31;;;21.13;28.40
37710;BME280;60223;34.854;-92.408;2023-02-19T06:16:43;101277.18;;;21.27;28.49
37710;BME280;60223;34.854;-92.408;2023-02-19T06:19:09;101280.75;;;20.98;28.70
37710;BME280;60223;34.854;-92.408;2023-02-19T06:21:34;101290.37;;;20.37;29.04
37710;BME280;60223;34.854;-92.408;2023-02-19T06:24:03;101272.64;;;21.50;28.15
37710;BME280;60223;34.854;-92.408;2023-02-19T06:26:27;101279.87;;;20.41;28.90
37710;BME280;60223;34.854;-92.408;2023-02-19T06:28:52;101283.86;;;20.72;28.89
37710;BME280;60223;34.854;-92.408;2023-02-19T06:31:16;101274.12;;;20.80;28.75
37710;BME280;60223;34.854;-92.408;2023-02-19T06:33:43;101277.39;;;20.68;28.59
37710;BME280;60223;34.854;-92.408;2023-02-19T06:36:19;101276.60;;;20.57;28.64
37710;BME280;60223;34.854;-92.408;2023-02-19T06:38:32;101280.28;;;20.73;28.68
37710;BME280;60223;34.854;-92.408;2023-02-19T06:41:03;101277.75;;;21.35;28.08
37710;BME280;60223;34.854;-92.408;2023-02-19T06:43:25;101285.97;;;20.83;28.29
37710;BME280;60223;34.854;-92.408;2023-02-19T06:45:52;101283.20;;;20.68;28.62
37710;BME280;60223;34.854;-92.408;2023-02-19T06:48:17;101275.97;;;20.87;28.45
37710;BME280;60223;34.854;-92.408;2023-02-19T06:50:43;101282.68;;;20.61;28.67
37710;BME280;60223;34.854;-92.408;2023-02-19T06:53:09;101284.67;;;20.84;28.47
37710;BME280;60223;34.854;-92.408;2023-02-19T06:55:34;101284.38;;;21.12;28.37
37710;BME280;60223;34.854;-92.408;2023-02-19T06:58:01;101290.21;;;21.01;28.18
37710;BME280;60223;34.854;-92.408;2023-02-19T07:00:25;101283.51;;;21.11;28.29
37710;BME280;60223;34.854;-92.408;2023-02-19T07:02:52;101288.21;;;20.70;28.45
37710;BME280;60223;34.854;-92.408;2023-02-19T07:05:17;101286.59;;;20.42;28.67
37710;BME280;60223;34.854;-92.408;2023-02-19T07:07:44;101291.15;;;20.81;28.28
37710;BME280;60223;34.854;-92.408;2023-02-19T07:10:09;101291.49;;;20.79;28.48
37710;BME280;60223;34.854;-92.408;2023-02-19T07:12:35;101285.10;;;20.35;28.62
37710;BME280;60223;34.854;-92.408;2023-02-19T07:15:00;101274.00;;;20.21;28.74
37710;BME280;60223;34.854;-92.408;2023-02-19T07:17:26;101275.78;;;20.88;28.29
37710;BME280;60223;34.854;-92.408;2023-02-19T07:19:53;101278.62;;;20.83;28.27
37710;BME280;60223;34.854;-92.408;2023-02-19T07:22:17;101274.43;;;20.69;28.16
37710;BME280;60223;34.854;-92.408;2023-02-19T07:24:42;101281.60;;;20.75;28.30
37710;BME280;60223;34.854;-92.408;2023-02-19T07:27:09;101277.28;;;20.63;28.14
37710;BME280;60223;34.854;-92.408;2023-02-19T07:29:35;101264.00;;;20.51;28.28
37710;BME280;60223;34.854;-92.408;2023-02-19T07:32:00;101259.19;;;20.76;27.98
37710;BME280;60223;34.854;-92.408;2023-02-19T07:34:27;101257.01;;;20.64;28.35
37710;BME280;60223;34.854;-92.408;2023-02-19T07:36:52;101254.36;;;20.61;28.30
37710;BME280;60223;34.854;-92.408;2023-02-19T07:39:18;101250.56;;;20.52;28.35
37710;BME280;60223;34.854;-92.408;2023-02-19T07:41:44;101253.32;;;19.93;28.67
37710;BME280;60223;34.854;-92.408;2023-02-19T07:44:10;101251.45;;;20.50;28.35
37710;BME280;60223;34.854;-92.408;2023-02-19T07:46:35;101249.80;;;20.83;28.04
37710;BME280;60223;34.854;-92.408;2023-02-19T07:49:00;101244.83;;;20.56;28.03
37710;BME280;60223;34.854;-92.408;2023-02-19T07:51:27;101241.08;;;20.26;28.26
37710;BME280;60223;34.854;-92.408;2023-02-19T07:53:53;101244.88;;;20.40;28.08
37710;BME280;60223;34.854;-92.408;2023-02-19T07:56:19;101245.55;;;20.31;28.12
37710;BME280;60223;34.854;-92.408;2023-02-19T07:58:44;101240.72;;;20.39;28.25
37710;BME280;60223;34.854;-92.408;2023-02-19T08:01:12;101240.41;;;20.55;28.05
37710;BME280;60223;34.854;-92.408;2023-02-19T08:03:35;101230.07;;;20.31;28.02
37710;BME280;60223;34.854;-92.408;2023-02-19T08:06:01;101229.60;;;20.26;28.23
37710;BME280;60223;34.854;-92.408;2023-02-19T08:08:25;101226.44;;;20.07;28.39
37710;BME280;60223;34.854;-92.408;2023-02-19T08:10:53;101225.79;;;20.49;28.00
37710;BME280;60223;34.854;-92.408;2023-02-19T08:13:18;101218.36;;;20.26;27.97
37710;BME280;60223;34.854;-92.408;2023-02-19T08:15:42;101220.19;;;20.22;28.18
37710;BME280;60223;34.854;-92.408;2023-02-19T08:18:11;101226.30;;;20.23;28.18
37710;BME280;60223;34.854;-92.408;2023-02-19T08:20:36;101226.12;;;20.05;28.35
37710;BME280;60223;34.854;-92.408;2023-02-19T08:22:59;101224.22;;;20.27;28.09
37710;BME280;60223;34.854;-92.408;2023-02-19T08:25:27;101216.49;;;21.02;27.39
37710;BME280;60223;34.854;-92.408;2023-02-19T08:27:52;101214.34;;;21.33;27.17
37710;BME280;60223;34.854;-92.408;2023-02-19T08:30:18;101209.37;;;21.83;26.70
37710;BME280;60223;34.854;-92.408;2023-02-19T08:32:44;101201.73;;;21.99;26.56
37710;BME280;60223;34.854;-92.408;2023-02-19T08:35:10;101196.63;;;21.70;26.81
37710;BME280;60223;34.854;-92.408;2023-02-19T08:37:36;101197.70;;;21.81;26.52
37710;BME280;60223;34.854;-92.408;2023-02-19T08:39:59;101199.16;;;21.25;27.26
37710;BME280;60223;34.854;-92.408;2023-02-19T08:42:27;101199.82;;;20.98;27.55
37710;BME280;60223;34.854;-92.408;2023-02-19T08:44:52;101198.62;;;20.55;27.93
37710;BME280;60223;34.854;-92.408;2023-02-19T08:47:19;101193.97;;;20.95;27.55
37710;BME280;60223;34.854;-92.408;2023-02-19T08:49:44;101182.90;;;20.78;27.66
37710;BME280;60223;34.854;-92.408;2023-02-19T08:52:10;101178.24;;;20.80;27.42
37710;BME280;60223;34.854;-92.408;2023-02-19T08:54:36;101175.93;;;21.54;26.88
37710;BME280;60223;34.854;-92.408;2023-02-19T08:57:02;101169.25;;;20.54;27.82
37710;BME280;60223;34.854;-92.408;2023-02-19T08:59:27;101170.19;;;20.93;27.39
37710;BME280;60223;34.854;-92.408;2023-02-19T09:01:52;101162.78;;;20.59;27.70
37710;BME280;60223;34.854;-92.408;2023-02-19T09:04:19;101164.69;;;20.77;27.49
37710;BME280;60223;34.854;-92.408;2023-02-19T09:06:45;101168.09;;;20.20;28.01
37710;BME280;60223;34.854;-92.408;2023-02-19T09:11:37;101161.29;;;20.58;27.59
37710;BME280;60223;34.854;-92.408;2023-02-19T09:14:02;101158.05;;;20.29;27.81
37710;BME280;60223;34.854;-92.408;2023-02-19T09:16:27;101152.22;;;20.73;27.41
37710;BME280;60223;34.854;-92.408;2023-02-19T09:18:54;101151.23;;;21.15;27.05
37710;BME280;60223;34.854;-92.408;2023-02-19T09:21:18;101147.44;;;21.85;26.39
37710;BME280;60223;34.854;-92.408;2023-02-19T09:23:44;101147.62;;;21.83;26.20
37710;BME280;60223;34.854;-92.408;2023-02-19T09:26:11;101142.56;;;21.79;26.41
37710;BME280;60223;34.854;-92.408;2023-02-19T09:28:37;101133.88;;;21.39;26.78
37710;BME280;60223;34.854;-92.408;2023-02-19T09:31:07;101118.37;;;21.28;26.86
37710;BME280;60223;34.854;-92.408;2023-02-19T09:33:28;101110.72;;;20.91;27.03
37710;BME280;60223;34.854;-92.408;2023-02-19T09:35:54;101110.18;;;21.13;27.07
37710;BME280;60223;34.854;-92.408;2023-02-19T09:38:18;101106.05;;;20.75;27.42
37710;BME280;60223;34.854;-92.408;2023-02-19T09:40:42;101095.85;;;20.84;27.32
37710;BME280;60223;34.854;-92.408;2023-02-19T09:43:12;101094.00;;;20.64;27.48
37710;BME280;60223;34.854;-92.408;2023-02-19T09:45:37;101082.81;;;20.66;27.45
37710;BME280;60223;34.854;-92.408;2023-02-19T09:48:03;101073.56;;;21.35;27.18
37710;BME280;60223;34.854;-92.408;2023-02-19T09:50:33;101079.95;;;20.36;27.67
37710;BME280;60223;34.854;-92.408;2023-02-19T09:52:54;101084.96;;;20.74;27.08
37710;BME280;60223;34.854;-92.408;2023-02-19T09:55:25;101079.44;;;20.63;27.36
37710;BME280;60223;34.854;-92.408;2023-02-19T09:57:45;101078.24;;;20.75;27.24
37710;BME280;60223;34.854;-92.408;2023-02-19T10:00:20;101075.10;;;20.57;27.37
37710;BME280;60223;34.854;-92.408;2023-02-19T10:02:36;101069.40;;;20.53;27.37
37710;BME280;60223;34.854;-92.408;2023-02-19T10:05:05;101059.80;;;21.05;27.08
37710;BME280;60223;34.854;-92.408;2023-02-19T10:07:37;101048.29;;;20.86;27.04
37710;BME280;60223;34.854;-92.408;2023-02-19T10:09:57;101037.90;;;21.27;26.65
37710;BME280;60223;34.854;-92.408;2023-02-19T10:12:21;101036.54;;;22.06;25.96
37710;BME280;60223;34.854;-92.408;2023-02-19T10:14:47;101038.83;;;21.99;26.00
37710;BME280;60223;34.854;-92.408;2023-02-19T10:17:18;101037.19;;;21.28;26.44
37710;BME280;60223;34.854;-92.408;2023-02-19T10:19:36;101033.21;;;22.02;26.02
37710;BME280;60223;34.854;-92.408;2023-02-19T10:22:05;101033.18;;;21.01;26.97
37710;BME280;60223;34.854;-92.408;2023-02-19T10:24:31;101027.98;;;20.78;27.16
37710;BME280;60223;34.854;-92.408;2023-02-19T10:26:55;101022.27;;;20.95;27.04
37710;BME280;60223;34.854;-92.408;2023-02-19T10:29:19;101013.66;;;21.62;26.38
37710;BME280;60223;34.854;-92.408;2023-02-19T10:31:46;101017.94;;;20.85;26.84
37710;BME280;60223;34.854;-92.408;2023-02-19T10:34:19;101014.03;;;20.63;27.27
37710;BME280;60223;34.854;-92.408;2023-02-19T10:36:40;101015.82;;;20.49;27.33
37710;BME280;60223;34.854;-92.408;2023-02-19T10:39:06;101026.27;;;21.02;26.57
37710;BME280;60223;34.854;-92.408;2023-02-19T10:41:28;101027.54;;;21.34;26.73
37710;BME280;60223;34.854;-92.408;2023-02-19T10:43:57;101033.90;;;20.89;26.87
37710;BME280;60223;34.854;-92.408;2023-02-19T10:46:20;101040.23;;;20.93;27.08
37710;BME280;60223;34.854;-92.408;2023-02-19T10:48:51;101041.83;;;19.90;27.82
37710;BME280;60223;34.854;-92.408;2023-02-19T10:51:11;101050.66;;;20.31;27.37
37710;BME280;60223;34.854;-92.408;2023-02-19T10:53:42;101051.45;;;21.16;26.57
37710;BME280;60223;34.854;-92.408;2023-02-19T10:56:10;101057.70;;;21.94;25.88
37710;BME280;60223;34.854;-92.408;2023-02-19T10:58:29;101063.61;;;21.84;25.99
37710;BME280;60223;34.854;-92.408;2023-02-19T11:01:11;101055.52;;;21.57;26.17
37710;BME280;60223;34.854;-92.408;2023-02-19T11:03:21;101052.91;;;21.38;26.18
37710;BME280;60223;34.854;-92.408;2023-02-19T11:05:53;101059.00;;;21.22;26.52
37710;BME280;60223;34.854;-92.408;2023-02-19T11:08:20;101059.07;;;20.62;27.11
37710;BME280;60223;34.854;-92.408;2023-02-19T11:10:39;101062.86;;;21.32;26.44
37710;BME280;60223;34.854;-92.408;2023-02-19T11:13:05;101064.29;;;20.95;26.81
37710;BME280;60223;34.854;-92.408;2023-02-19T11:15:32;101063.48;;;20.61;27.10
37710;BME280;60223;34.854;-92.408;2023-02-19T11:18:02;101063.84;;;20.56;26.91
37710;BME280;60223;34.854;-92.408;2023-02-19T11:20:21;101070.53;;;21.07;26.60
37710;BME280;60223;34.854;-92.408;2023-02-19T11:22:46;101068.36;;;21.12;26.53
37710;BME280;60223;34.854;-92.408;2023-02-19T11:25:20;101066.67;;;20.57;27.03
37710;BME280;60223;34.854;-92.408;2023-02-19T11:32:31;101051.80;;;20.61;26.88
37710;BME280;60223;34.854;-92.408;2023-02-19T11:37:19;101038.02;;;21.11;26.44
37710;BME280;60223;34.854;-92.408;2023-02-19T11:39:49;101039.25;;;22.01;25.63
37710;BME280;60223;34.854;-92.408;2023-02-19T11:42:26;101042.05;;;22.06;25.58
37710;BME280;60223;34.854;-92.408;2023-02-19T11:44:49;101051.19;;;21.61;25.97
37710;BME280;60223;34.854;-92.408;2023-02-19T11:49:38;101059.35;;;21.17;26.36
37710;BME280;60223;34.854;-92.408;2023-02-19T11:52:05;101053.08;;;20.85;26.72
37710;BME280;60223;34.854;-92.408;2023-02-19T11:54:32;101047.25;;;20.24;27.09
37710;BME280;60223;34.854;-92.408;2023-02-19T11:56:52;101040.67;;;20.59;26.97
37710;BME280;60223;34.854;-92.408;2023-02-19T11:59:20;101044.99;;;20.41;27.09
37710;BME280;60223;34.854;-92.408;2023-02-19T12:01:49;101042.10;;;20.14;27.11
37710;BME280;60223;34.854;-92.408;2023-02-19T12:06:34;101044.57;;;20.63;26.83
37710;BME280;60223;34.854;-92.408;2023-02-19T12:11:34;101038.64;;;19.87;27.44
37710;BME280;60223;34.854;-92.408;2023-02-19T12:14:03;101034.02;;;20.56;26.99
37710;BME280;60223;34.854;-92.408;2023-02-19T12:16:19;101029.51;;;21.00;26.38
37710;BME280;60223;34.854;-92.408;2023-02-19T12:18:51;101029.00;;;20.96;26.43
37710;BME280;60223;34.854;-92.408;2023-02-19T12:21:13;101028.56;;;21.56;25.85
37710;BME280;60223;34.854;-92.408;2023-02-19T12:23:49;101031.90;;;21.84;25.62
37710;BME280;60223;34.854;-92.408;2023-02-19T12:25:58;101027.71;;;20.81;26.52
37710;BME280;60223;34.854;-92.408;2023-02-19T12:28:42;101017.50;;;20.99;26.36
37710;BME280;60223;34.854;-92.408;2023-02-19T12:35:46;101010.29;;;20.59;26.75
37710;BME280;60223;34.854;-92.408;2023-02-19T12:38:12;101000.57;;;20.75;26.59
37710;BME280;60223;34.854;-92.408;2023-02-19T12:40:42;100997.02;;;20.77;26.50
37710;BME280;60223;34.854;-92.408;2023-02-19T12:43:08;101000.59;;;20.19;27.01
37710;BME280;60223;34.854;-92.408;2023-02-19T12:45:29;101007.35;;;20.98;26.33
37710;BME280;60223;34.854;-92.408;2023-02-19T12:47:55;101002.69;;;21.38;25.96
37710;BME280;60223;34.854;-92.408;2023-02-19T12:50:17;100995.75;;;21.46;25.90